Time;durP1;ratioP1;P1;durP2;ratioP2;P2;SDS_P1;SDS_P2;PMS_P1;PMS_P2;Temp;Humidity;BMP_temperature;BMP_pressure;BME280_temperature;BME280_humidity;BME280_pressure;Samples;Min_cycle;Max_cycle;Signal;HPM_P1;HPM_P2
2022/01/05 00:00:06;;;;;;;9.90;4.30;;;3.90;99.90;;;;;;5048205;28;20712;-69
2022/01/05 00:02:32;;;;;;;8.02;3.45;;;3.90;99.90;;;;;;5040337;28;20045;-70
2022/01/05 00:04:58;;;;;;;9.65;4.22;;;3.90;99.90;;;;;;5042663;28;20025;-70
2022/01/05 00:07:24;;;;;;;10.40;4.72;;;3.90;99.90;;;;;;5040937;28;20025;-69
2022/01/05 00:09:49;;;;;;;9.88;4.70;;;3.90;99.90;;;;;;5045575;28;20025;-69
2022/01/05 00:12:15;;;;;;;11.30;4.57;;;3.90;99.90;;;;;;5036608;28;20025;-68
2022/01/05 00:14:41;;;;;;;11.43;5.05;;;3.90;99.90;;;;;;5044565;28;20132;-69
2022/01/05 00:17:06;;;;;;;12.02;4.88;;;3.90;99.90;;;;;;5041882;28;20032;-69
2022/01/05 00:19:34;;;;;;;7.82;3.92;;;3.90;99.90;;;;;;5049975;28;20481;-67
2022/01/05 00:22:00;;;;;;;8.13;3.67;;;4.00;99.90;;;;;;5022209;28;20029;-70
2022/01/05 00:24:26;;;;;;;8.32;4.07;;;4.00;99.90;;;;;;5050244;28;20423;-68
2022/01/05 00:26:52;;;;;;;8.65;3.25;;;4.00;99.90;;;;;;5047870;28;20033;-70
2022/01/05 00:29:17;;;;;;;6.88;2.97;;;4.00;99.90;;;;;;5035262;28;20042;-69
2022/01/05 00:31:43;;;;;;;5.82;2.95;;;4.00;99.90;;;;;;5039433;28;20158;-69
2022/01/05 00:34:08;;;;;;;6.35;2.47;;;4.00;99.90;;;;;;5048435;28;20036;-69
2022/01/05 00:36:34;;;;;;;5.07;2.40;;;4.00;99.90;;;;;;5044558;28;20029;-70
2022/01/05 00:39:00;;;;;;;5.22;2.20;;;4.00;99.90;;;;;;5039752;28;20473;-70
2022/01/05 00:41:25;;;;;;;4.10;1.80;;;4.00;99.90;;;;;;5042394;28;20039;-70
2022/01/05 00:43:51;;;;;;;3.17;1.40;;;4.10;99.90;;;;;;5036165;28;20099;-70
2022/01/05 00:46:17;;;;;;;3.92;1.50;;;4.10;99.90;;;;;;5048796;28;20049;-69
2022/01/05 00:48:42;;;;;;;5.85;1.52;;;4.10;99.90;;;;;;5047895;28;20155;-69
2022/01/05 00:51:09;;;;;;;2.72;1.10;;;4.10;99.90;;;;;;5048914;28;20029;-69
2022/01/05 00:53:36;;;;;;;2.60;1.00;;;4.20;99.90;;;;;;5038068;28;20043;-70
2022/01/05 00:56:02;;;;;;;3.60;1.30;;;4.20;99.90;;;;;;5047282;28;20393;-69
2022/01/05 00:58:27;;;;;;;2.33;1.00;;;4.20;99.90;;;;;;5041811;28;20032;-69
2022/01/05 01:00:53;;;;;;;3.55;1.40;;;4.20;99.90;;;;;;5049086;28;20044;-69
2022/01/05 01:03:19;;;;;;;3.85;1.40;;;4.20;99.90;;;;;;5048478;28;20056;-69
2022/01/05 01:05:45;;;;;;;2.17;1.20;;;4.20;99.90;;;;;;5040529;28;20071;-69
2022/01/05 01:08:11;;;;;;;2.80;1.45;;;4.20;99.90;;;;;;5042997;28;20029;-70
2022/01/05 01:10:37;;;;;;;2.53;1.13;;;4.20;99.90;;;;;;5033788;28;20033;-70
2022/01/05 01:13:03;;;;;;;3.20;1.50;;;4.20;99.90;;;;;;5036410;28;20080;-69
2022/01/05 01:15:28;;;;;;;2.95;1.40;;;4.30;99.90;;;;;;5035659;28;20037;-70
2022/01/05 01:17:54;;;;;;;4.57;1.65;;;4.30;99.90;;;;;;5038695;28;20032;-69
2022/01/05 01:20:20;;;;;;;4.43;1.75;;;4.30;99.90;;;;;;5043685;28;20033;-69
2022/01/05 01:22:48;;;;;;;4.15;1.80;;;4.30;99.90;;;;;;5046203;28;20033;-70
2022/01/05 01:25:14;;;;;;;4.18;1.50;;;4.20;99.90;;;;;;5048419;28;20058;-70
2022/01/05 01:27:43;;;;;;;2.92;1.58;;;4.20;99.90;;;;;;5048833;28;20071;-70
2022/01/05 01:30:10;;;;;;;4.97;1.92;;;4.20;99.90;;;;;;5012101;28;20040;-69
2022/01/05 01:32:36;;;;;;;6.20;1.85;;;4.20;99.90;;;;;;5043415;28;20039;-69
2022/01/05 01:35:06;;;;;;;3.47;1.50;;;4.20;99.90;;;;;;5044936;28;20036;-69
2022/01/05 01:37:31;;;;;;;2.47;1.13;;;4.20;99.90;;;;;;5038282;28;20029;-70
2022/01/05 01:39:57;;;;;;;3.22;1.58;;;4.20;99.90;;;;;;5048294;28;20052;-71
2022/01/05 01:42:23;;;;;;;2.22;1.20;;;4.20;99.90;;;;;;5028929;28;20040;-69
2022/01/05 01:44:48;;;;;;;3.63;1.80;;;4.20;99.90;;;;;;5047606;28;20098;-70
2022/01/05 01:47:14;;;;;;;3.88;1.80;;;4.20;99.90;;;;;;5043198;28;20491;-70
2022/01/05 01:49:41;;;;;;;3.05;1.45;;;4.30;99.90;;;;;;5044188;28;20032;-70
2022/01/05 01:52:07;;;;;;;4.70;1.77;;;4.30;99.90;;;;;;5030935;28;20048;-69
2022/01/05 01:54:35;;;;;;;4.25;1.92;;;4.30;99.90;;;;;;5029088;28;20136;-71
2022/01/05 01:57:01;;;;;;;2.67;1.35;;;4.30;99.90;;;;;;5045583;28;20041;-70
2022/01/05 01:59:28;;;;;;;3.13;1.50;;;4.30;99.90;;;;;;5048259;28;20397;-69
2022/01/05 02:01:54;;;;;;;3.38;1.58;;;4.30;99.90;;;;;;5048440;28;20041;-69
2022/01/05 02:04:21;;;;;;;4.07;1.77;;;4.30;99.90;;;;;;5047695;28;20611;-70
2022/01/05 02:06:47;;;;;;;3.78;1.42;;;4.30;99.90;;;;;;5040445;28;20037;-70
2022/01/05 02:09:13;;;;;;;4.20;1.85;;;4.40;99.90;;;;;;5037200;28;20029;-70
2022/01/05 02:11:40;;;;;;;2.30;1.00;;;4.40;99.90;;;;;;5029607;28;20029;-69
2022/01/05 02:14:06;;;;;;;2.83;1.48;;;4.40;99.90;;;;;;5039555;28;20051;-70
2022/01/05 02:16:34;;;;;;;2.92;1.27;;;4.40;99.90;;;;;;5046501;28;20120;-70
2022/01/05 02:19:00;;;;;;;4.28;1.20;;;4.40;99.90;;;;;;5037640;28;20034;-69
2022/01/05 02:21:28;;;;;;;4.35;1.30;;;4.40;99.90;;;;;;5020695;28;20108;-69
2022/01/05 02:23:55;;;;;;;3.08;1.30;;;4.40;99.90;;;;;;5033244;28;20041;-70
2022/01/05 02:26:20;;;;;;;3.15;1.40;;;4.50;99.90;;;;;;5039130;28;20163;-70
2022/01/05 02:28:46;;;;;;;2.65;1.20;;;4.50;99.90;;;;;;5040468;28;20470;-69
2022/01/05 02:31:12;;;;;;;2.60;1.02;;;4.50;99.90;;;;;;5041181;28;20064;-70
2022/01/05 02:33:40;;;;;;;4.18;1.63;;;4.50;99.90;;;;;;5044271;28;20053;-69
2022/01/05 02:36:06;;;;;;;3.80;1.23;;;4.50;99.90;;;;;;5039101;28;20051;-70
2022/01/05 02:38:32;;;;;;;5.70;1.45;;;4.50;99.90;;;;;;5048125;28;20067;-70
2022/01/05 02:41:08;;;;;;;2.45;1.15;;;4.50;99.90;;;;;;5031184;28;20808;-69
2022/01/05 02:43:35;;;;;;;2.33;1.10;;;4.50;99.90;;;;;;5046243;28;20029;-70
2022/01/05 02:46:02;;;;;;;2.20;1.10;;;4.50;99.90;;;;;;5047788;28;20044;-70
2022/01/05 02:48:28;;;;;;;2.80;1.20;;;4.50;99.90;;;;;;5046282;28;20052;-69
2022/01/05 02:50:57;;;;;;;2.45;1.20;;;4.60;99.90;;;;;;5049728;28;20076;-70
2022/01/05 02:53:23;;;;;;;3.03;1.33;;;4.60;99.90;;;;;;5043994;28;20104;-69
2022/01/05 02:55:49;;;;;;;2.30;1.20;;;4.60;99.90;;;;;;5051503;28;20036;-69
2022/01/05 02:58:15;;;;;;;6.22;1.48;;;4.50;99.90;;;;;;5044392;28;20025;-70
2022/01/05 03:00:41;;;;;;;1.98;0.90;;;4.50;99.90;;;;;;5049690;28;20039;-70
2022/01/05 03:03:07;;;;;;;2.08;0.85;;;4.50;99.90;;;;;;5043839;28;20124;-70
2022/01/05 03:05:32;;;;;;;1.35;0.55;;;4.40;99.90;;;;;;5035415;28;20037;-70
2022/01/05 03:07:58;;;;;;;1.10;0.40;;;4.40;99.90;;;;;;5049952;28;20389;-69
2022/01/05 03:10:24;;;;;;;1.48;0.50;;;4.30;99.90;;;;;;5051151;28;20088;-70
2022/01/05 03:12:50;;;;;;;1.13;0.50;;;4.30;99.90;;;;;;5044513;28;20045;-70
2022/01/05 03:15:16;;;;;;;1.55;0.40;;;4.30;99.90;;;;;;5050341;28;20040;-70
2022/01/05 03:17:42;;;;;;;0.73;0.40;;;4.20;99.90;;;;;;5045022;28;20029;-70
2022/01/05 03:20:10;;;;;;;1.40;0.40;;;4.20;99.90;;;;;;5031818;28;20033;-69
2022/01/05 03:22:36;;;;;;;1.10;0.30;;;4.20;99.90;;;;;;5049622;28;20397;-69
2022/01/05 03:25:03;;;;;;;3.72;0.55;;;4.20;99.90;;;;;;5033593;28;20469;-70
2022/01/05 03:27:29;;;;;;;1.90;0.50;;;4.20;99.90;;;;;;5041258;28;20026;-69
2022/01/05 03:29:54;;;;;;;1.15;0.28;;;4.20;99.90;;;;;;5014643;28;20030;-70
2022/01/05 03:32:20;;;;;;;3.70;0.63;;;4.10;99.90;;;;;;5031870;28;20034;-70
2022/01/05 03:34:47;;;;;;;1.33;0.40;;;4.20;99.90;;;;;;5031625;28;20348;-70
2022/01/05 03:37:13;;;;;;;2.30;0.52;;;4.20;99.90;;;;;;5046878;28;20033;-70
2022/01/05 03:39:38;;;;;;;0.75;0.30;;;4.20;99.90;;;;;;5032075;28;20144;-71
2022/01/05 03:42:05;;;;;;;0.70;0.30;;;4.30;99.90;;;;;;5048990;28;20075;-69
2022/01/05 03:44:31;;;;;;;1.15;0.40;;;4.30;99.90;;;;;;5048760;28;20048;-69
2022/01/05 03:46:56;;;;;;;1.05;0.30;;;4.40;99.90;;;;;;5032805;28;20393;-70
2022/01/05 03:49:23;;;;;;;0.93;0.30;;;4.40;99.90;;;;;;5044589;28;20036;-69
2022/01/05 03:51:49;;;;;;;1.20;0.40;;;4.30;99.90;;;;;;5050521;28;20078;-70
2022/01/05 03:54:14;;;;;;;2.00;1.02;;;4.30;99.90;;;;;;5041458;28;20021;-69
2022/01/05 03:56:40;;;;;;;0.50;0.20;;;4.30;99.90;;;;;;5050968;28;20037;-69
2022/01/05 03:59:06;;;;;;;2.00;0.30;;;4.30;99.90;;;;;;5048841;28;20488;-70
2022/01/05 04:01:31;;;;;;;1.67;0.47;;;4.30;99.90;;;;;;5049220;28;20734;-70
2022/01/05 04:03:57;;;;;;;1.08;0.30;;;4.30;99.90;;;;;;5050556;28;20489;-70
2022/01/05 04:06:22;;;;;;;0.90;0.38;;;4.30;99.90;;;;;;5029340;28;20515;-69
2022/01/05 04:08:48;;;;;;;2.35;0.45;;;4.30;99.90;;;;;;5050972;28;20163;-69
2022/01/05 04:11:14;;;;;;;1.38;0.40;;;4.30;99.90;;;;;;5048951;28;20025;-69
2022/01/05 04:13:39;;;;;;;0.52;0.25;;;4.30;99.90;;;;;;5046436;28;20462;-70
2022/01/05 04:16:06;;;;;;;2.50;0.43;;;4.30;99.90;;;;;;5037393;28;20057;-70
2022/01/05 04:18:32;;;;;;;1.23;0.52;;;4.30;99.90;;;;;;5036866;28;20036;-70
2022/01/05 04:20:57;;;;;;;1.45;0.40;;;4.30;99.90;;;;;;5046459;28;20520;-69
2022/01/05 04:23:23;;;;;;;2.30;0.40;;;4.30;99.90;;;;;;5049321;28;20063;-70
2022/01/05 04:25:49;;;;;;;0.77;0.25;;;4.40;99.90;;;;;;5042187;28;20378;-70
2022/01/05 04:28:14;;;;;;;0.68;0.30;;;4.40;99.90;;;;;;5049632;28;20111;-70
2022/01/05 04:30:40;;;;;;;1.23;0.38;;;4.40;99.90;;;;;;5047672;28;20040;-70
2022/01/05 04:33:06;;;;;;;0.25;0.13;;;4.50;99.90;;;;;;5049181;28;20082;-70
2022/01/05 04:35:32;;;;;;;1.88;0.30;;;4.50;99.90;;;;;;5023622;28;20174;-70
2022/01/05 04:37:57;;;;;;;0.77;0.28;;;4.50;99.90;;;;;;5040649;28;20041;-70
2022/01/05 04:40:23;;;;;;;1.20;0.30;;;4.50;99.90;;;;;;5034938;28;20475;-70
2022/01/05 04:42:49;;;;;;;1.30;0.30;;;4.60;99.90;;;;;;5031628;28;20385;-70
2022/01/05 04:45:14;;;;;;;1.65;0.30;;;4.60;99.90;;;;;;5037806;28;20025;-70
2022/01/05 04:47:40;;;;;;;1.77;0.40;;;4.60;99.90;;;;;;5038679;28;20032;-70
2022/01/05 04:50:06;;;;;;;2.15;0.22;;;4.60;99.90;;;;;;5049787;28;20040;-70
2022/01/05 04:52:32;;;;;;;1.40;0.55;;;4.70;99.90;;;;;;5026613;28;20048;-70
2022/01/05 04:54:57;;;;;;;0.52;0.20;;;4.70;99.90;;;;;;5012628;28;20033;-70
2022/01/05 04:57:23;;;;;;;0.30;0.10;;;4.70;99.90;;;;;;5046398;28;20033;-71
2022/01/05 04:59:49;;;;;;;0.63;0.20;;;4.70;99.90;;;;;;5049577;28;20539;-69
2022/01/05 05:02:15;;;;;;;0.98;0.17;;;4.70;99.90;;;;;;5033130;28;20040;-70
2022/01/05 05:04:41;;;;;;;0.60;0.20;;;4.80;99.90;;;;;;5049223;28;20507;-70
2022/01/05 05:07:07;;;;;;;0.55;0.13;;;4.70;99.90;;;;;;5038353;28;20037;-73
2022/01/05 05:09:33;;;;;;;0.40;0.10;;;4.80;99.90;;;;;;5048325;28;20029;-70
2022/01/05 05:11:59;;;;;;;0.55;0.10;;;4.90;99.90;;;;;;5044654;28;20458;-70
2022/01/05 05:14:25;;;;;;;0.22;0.03;;;4.90;99.90;;;;;;5040585;28;20537;-69
2022/01/05 05:16:50;;;;;;;0.17;0.10;;;4.80;99.90;;;;;;5039051;28;20125;-68
2022/01/05 05:19:16;;;;;;;0.32;0.10;;;4.80;99.90;;;;;;5045609;28;20116;-69
2022/01/05 05:21:42;;;;;;;0.75;0.10;;;4.80;99.90;;;;;;5041077;28;20033;-69
2022/01/05 05:24:07;;;;;;;0.20;0.00;;;4.80;99.90;;;;;;5047481;28;20444;-68
2022/01/05 05:26:33;;;;;;;0.45;0.10;;;4.80;99.90;;;;;;5026780;28;20132;-69
2022/01/05 05:28:59;;;;;;;0.93;0.15;;;4.70;99.90;;;;;;5048798;28;20090;-69
2022/01/05 05:31:24;;;;;;;0.30;0.15;;;4.70;99.90;;;;;;5048333;28;20458;-70
2022/01/05 05:33:50;;;;;;;0.60;0.20;;;4.60;99.90;;;;;;5039756;28;20028;-68
2022/01/05 05:36:16;;;;;;;0.43;0.20;;;4.60;99.90;;;;;;5047260;28;20430;-69
2022/01/05 05:38:41;;;;;;;0.28;0.10;;;4.50;99.90;;;;;;5041844;28;20028;-69
2022/01/05 05:41:07;;;;;;;0.40;0.13;;;4.40;99.90;;;;;;5026672;28;20132;-68
2022/01/05 05:43:32;;;;;;;1.00;0.10;;;4.40;99.90;;;;;;5026071;28;20524;-69
2022/01/05 05:45:58;;;;;;;2.05;0.52;;;4.30;99.90;;;;;;5041224;28;20075;-69
2022/01/05 05:48:24;;;;;;;0.30;0.10;;;4.30;99.90;;;;;;5043628;28;20100;-68
2022/01/05 05:50:50;;;;;;;0.20;0.10;;;4.40;99.90;;;;;;5048137;28;20033;-68
2022/01/05 05:53:16;;;;;;;0.35;0.20;;;4.40;99.90;;;;;;5031894;28;20036;-69
2022/01/05 05:55:41;;;;;;;0.30;0.10;;;4.40;99.90;;;;;;5036072;28;20037;-69
2022/01/05 05:58:07;;;;;;;1.55;0.45;;;4.30;99.90;;;;;;5048826;28;20087;-69
2022/01/05 06:00:33;;;;;;;0.40;0.20;;;4.30;99.90;;;;;;5023771;28;20090;-68
2022/01/05 06:02:59;;;;;;;0.75;0.30;;;4.20;99.90;;;;;;5039259;28;20456;-69
2022/01/05 06:05:26;;;;;;;0.70;0.30;;;4.20;99.90;;;;;;5039082;28;20426;-68
2022/01/05 06:07:51;;;;;;;0.85;0.40;;;4.20;99.90;;;;;;5041317;28;20026;-68
2022/01/05 06:10:18;;;;;;;0.73;0.30;;;4.20;99.90;;;;;;5023184;28;20055;-69
2022/01/05 06:12:43;;;;;;;2.22;0.30;;;4.10;99.90;;;;;;5036711;28;20397;-68
2022/01/05 06:15:10;;;;;;;0.40;0.30;;;4.10;99.90;;;;;;5029830;28;20129;-68
2022/01/05 06:17:36;;;;;;;0.80;0.47;;;4.00;99.90;;;;;;5044205;28;20025;-68
2022/01/05 06:20:04;;;;;;;0.73;0.55;;;4.00;99.90;;;;;;5038866;28;20037;-68
2022/01/05 06:22:30;;;;;;;2.50;1.17;;;3.90;99.90;;;;;;5031745;28;20041;-68
2022/01/05 06:24:56;;;;;;;1.42;0.70;;;3.80;99.90;;;;;;5044913;28;20036;-70
2022/01/05 06:27:22;;;;;;;1.30;0.80;;;3.70;99.90;;;;;;5043143;28;20497;-68
2022/01/05 06:29:47;;;;;;;1.80;1.00;;;3.70;99.90;;;;;;5044810;28;20079;-68
2022/01/05 06:32:13;;;;;;;1.25;0.80;;;3.60;99.90;;;;;;5049459;28;20086;-68
2022/01/05 06:34:39;;;;;;;1.65;0.75;;;3.50;99.90;;;;;;5020934;28;20145;-68
2022/01/05 06:37:05;;;;;;;1.42;0.85;;;3.50;99.90;;;;;;5047887;28;20037;-69
2022/01/05 06:39:31;;;;;;;1.75;1.00;;;3.40;99.90;;;;;;5037220;28;20087;-68
2022/01/05 06:41:57;;;;;;;4.53;0.90;;;3.20;99.90;;;;;;5051655;28;20183;-67
2022/01/05 06:44:23;;;;;;;2.13;1.33;;;3.10;99.90;;;;;;5047422;28;20473;-68
2022/01/05 06:46:48;;;;;;;3.75;1.90;;;3.00;99.90;;;;;;5038522;28;20041;-69
2022/01/05 06:49:14;;;;;;;4.60;2.75;;;2.90;99.90;;;;;;5050902;28;20025;-68
2022/01/05 06:51:40;;;;;;;5.90;3.28;;;2.80;99.90;;;;;;5051349;28;20029;-68
2022/01/05 06:54:05;;;;;;;8.80;3.78;;;2.70;99.90;;;;;;5050599;28;20032;-68
2022/01/05 06:56:31;;;;;;;7.43;3.88;;;2.60;99.90;;;;;;5050064;28;20076;-68
2022/01/05 06:58:57;;;;;;;8.10;3.95;;;2.50;99.90;;;;;;5051697;28;20095;-67
2022/01/05 07:01:23;;;;;;;9.75;4.40;;;2.50;99.90;;;;;;5050009;28;20108;-68
2022/01/05 07:03:48;;;;;;;8.82;4.38;;;2.50;99.90;;;;;;5050870;28;20115;-67
2022/01/05 07:06:14;;;;;;;6.97;3.53;;;2.40;99.90;;;;;;5051585;28;20506;-68
2022/01/05 07:08:40;;;;;;;5.40;2.67;;;2.40;99.90;;;;;;5049880;28;20041;-68
2022/01/05 07:11:05;;;;;;;5.95;3.17;;;2.40;99.90;;;;;;5051189;28;20097;-67
2022/01/05 07:13:32;;;;;;;7.82;3.00;;;2.40;99.90;;;;;;5031810;28;20102;-67
2022/01/05 07:15:57;;;;;;;6.50;2.70;;;2.40;99.90;;;;;;5051609;28;20045;-68
2022/01/05 07:18:23;;;;;;;5.13;2.67;;;2.30;99.90;;;;;;5049895;28;20029;-68
2022/01/05 07:20:49;;;;;;;7.35;2.47;;;2.40;99.90;;;;;;5048715;28;20036;-68
2022/01/05 07:23:14;;;;;;;4.70;2.13;;;2.30;99.90;;;;;;5050025;28;20477;-68
2022/01/05 07:25:40;;;;;;;4.18;1.77;;;2.30;99.90;;;;;;5039424;28;20035;-68
2022/01/05 07:28:06;;;;;;;4.57;1.77;;;2.40;99.90;;;;;;5026288;28;20035;-68
2022/01/05 07:30:32;;;;;;;5.28;2.22;;;2.40;99.90;;;;;;5042361;28;20112;-69
2022/01/05 07:32:58;;;;;;;4.05;1.88;;;2.40;99.90;;;;;;5050137;28;20245;-68
2022/01/05 07:35:24;;;;;;;7.53;2.30;;;2.30;99.90;;;;;;5048626;28;20103;-68
2022/01/05 07:37:49;;;;;;;5.55;2.28;;;2.20;99.90;;;;;;5043113;28;20032;-68
2022/01/05 07:40:15;;;;;;;6.85;2.72;;;2.20;99.90;;;;;;5047355;28;20087;-68
2022/01/05 07:42:41;;;;;;;5.57;2.53;;;2.20;99.90;;;;;;5027259;28;20025;-67
2022/01/05 07:45:09;;;;;;;7.63;2.72;;;2.20;99.90;;;;;;5051146;28;20052;-68
2022/01/05 07:47:35;;;;;;;5.78;2.70;;;2.20;99.90;;;;;;5045957;28;20093;-68
2022/01/05 07:50:01;;;;;;;10.25;2.80;;;2.20;99.90;;;;;;5050134;28;20032;-68
2022/01/05 07:52:27;;;;;;;5.80;2.40;;;2.20;99.90;;;;;;5049514;28;20029;-68
2022/01/05 07:54:53;;;;;;;6.10;2.33;;;2.20;99.90;;;;;;5050375;28;20044;-68
2022/01/05 07:57:19;;;;;;;8.13;2.75;;;2.10;99.90;;;;;;5050185;28;20033;-68
2022/01/05 07:59:45;;;;;;;7.07;2.20;;;2.00;99.90;;;;;;5049129;28;20025;-68
2022/01/05 08:02:11;;;;;;;6.28;2.33;;;2.10;99.90;;;;;;5049875;28;20036;-67
2022/01/05 08:04:37;;;;;;;6.13;2.55;;;2.10;99.90;;;;;;5048152;28;20037;-68
2022/01/05 08:07:02;;;;;;;5.10;2.05;;;2.10;99.90;;;;;;5049309;28;20036;-67
2022/01/05 08:09:29;;;;;;;9.60;2.35;;;2.10;99.90;;;;;;5049241;28;20481;-67
2022/01/05 08:11:56;;;;;;;9.95;2.80;;;2.10;99.90;;;;;;5049293;28;20742;-68
2022/01/05 08:14:22;;;;;;;8.00;2.83;;;2.00;99.90;;;;;;5049555;28;20037;-69
2022/01/05 08:16:47;;;;;;;6.70;2.83;;;2.00;99.90;;;;;;5049083;28;20052;-68
2022/01/05 08:19:13;;;;;;;7.38;2.70;;;1.90;99.90;;;;;;5046474;28;20425;-67
2022/01/05 08:21:39;;;;;;;8.05;2.80;;;1.90;99.90;;;;;;5038152;28;20858;-67
2022/01/05 08:24:05;;;;;;;12.25;3.13;;;1.90;99.90;;;;;;5048764;28;20051;-68
2022/01/05 08:26:31;;;;;;;12.70;2.95;;;1.90;99.90;;;;;;5047539;28;20044;-68
2022/01/05 08:28:57;;;;;;;5.97;3.13;;;1.80;99.90;;;;;;5049643;28;20032;-67
2022/01/05 08:31:22;;;;;;;5.97;2.78;;;1.80;99.90;;;;;;5049122;28;20106;-68
2022/01/05 08:33:48;;;;;;;6.28;2.80;;;1.70;99.90;;;;;;5047322;28;20469;-67
2022/01/05 08:36:14;;;;;;;6.75;2.92;;;1.70;99.90;;;;;;5024560;28;20461;-68
2022/01/05 08:38:40;;;;;;;9.35;3.03;;;1.70;99.90;;;;;;5047813;28;20040;-67
2022/01/05 08:41:06;;;;;;;12.05;3.30;;;1.60;99.90;;;;;;5043645;28;20033;-67
2022/01/05 08:43:33;;;;;;;7.07;2.90;;;1.50;99.90;;;;;;5041407;28;20112;-67
2022/01/05 08:45:59;;;;;;;6.38;2.08;;;1.50;99.90;;;;;;5034184;28;20079;-68
2022/01/05 08:48:25;;;;;;;5.75;2.00;;;1.50;99.90;;;;;;5043483;28;20385;-68
2022/01/05 08:50:51;;;;;;;5.05;1.90;;;1.40;99.90;;;;;;5047658;28;20032;-66
2022/01/05 08:53:17;;;;;;;5.90;1.63;;;1.40;99.90;;;;;;5046525;28;20068;-66
2022/01/05 08:55:46;;;;;;;5.00;1.38;;;1.50;99.90;;;;;;5043533;28;20029;-67
2022/01/05 08:58:13;;;;;;;6.88;1.80;;;1.50;99.90;;;;;;5044369;28;20029;-69
2022/01/05 09:00:39;;;;;;;3.70;1.63;;;1.60;99.90;;;;;;5035829;28;20035;-67
2022/01/05 09:03:06;;;;;;;5.13;2.20;;;1.50;99.90;;;;;;5046227;28;20112;-67
2022/01/05 09:05:32;;;;;;;3.10;1.45;;;1.50;99.90;;;;;;5033212;28;20487;-68
2022/01/05 09:07:58;;;;;;;4.38;1.60;;;1.50;99.90;;;;;;5042328;28;20068;-67
2022/01/05 09:10:24;;;;;;;4.45;1.85;;;1.40;99.90;;;;;;5036115;28;20029;-67
2022/01/05 09:12:49;;;;;;;6.10;1.80;;;1.40;99.90;;;;;;5042520;28;20052;-67
2022/01/05 09:15:15;;;;;;;7.45;2.05;;;1.50;99.90;;;;;;5041640;28;20508;-67
2022/01/05 09:17:41;;;;;;;4.75;1.65;;;1.40;99.90;;;;;;5048722;28;20063;-67
2022/01/05 09:20:08;;;;;;;7.22;2.80;;;1.50;99.90;;;;;;5031441;28;20512;-67
2022/01/05 09:22:38;;;;;;;6.15;1.77;;;1.50;99.90;;;;;;5040295;28;20469;-66
2022/01/05 09:25:09;;;;;;;6.70;2.30;;;1.50;99.90;;;;;;5048835;28;20445;-67
2022/01/05 09:27:37;;;;;;;5.97;1.90;;;1.50;99.90;;;;;;5030325;28;20711;-67
2022/01/05 09:30:05;;;;;;;6.88;2.13;;;1.70;99.90;;;;;;5040713;28;20037;-67
2022/01/05 09:32:31;;;;;;;8.55;2.58;;;1.90;99.90;;;;;;5028688;28;20091;-67
2022/01/05 09:34:57;;;;;;;5.35;1.90;;;2.00;99.90;;;;;;5047040;28;20533;-66
2022/01/05 09:37:27;;;;;;;5.55;2.28;;;2.00;99.90;;;;;;5043246;28;20108;-67
2022/01/05 09:42:40;;;;;;;4.97;1.90;;;2.00;99.90;;;;;;5046356;28;20036;-65
2022/01/05 09:45:15;;;;;;;8.73;2.20;;;2.10;99.90;;;;;;5039319;28;20462;-66
2022/01/05 09:48:18;;;;;;;7.15;2.00;;;2.20;99.90;;;;;;5028406;28;20041;-67
2022/01/05 09:51:03;;;;;;;7.85;2.00;;;2.40;99.90;;;;;;5048569;28;20036;-67
2022/01/05 09:53:31;;;;;;;5.03;2.20;;;2.40;99.90;;;;;;5029100;28;20040;-67
2022/01/05 09:55:58;;;;;;;7.10;2.45;;;2.50;99.90;;;;;;5040886;28;20068;-66
2022/01/05 09:58:24;;;;;;;10.23;2.15;;;2.50;99.90;;;;;;5048427;28;20047;-67
2022/01/05 10:00:51;;;;;;;7.05;2.25;;;2.30;99.90;;;;;;5048987;28;20029;-67
2022/01/05 10:03:17;;;;;;;6.30;2.15;;;2.20;99.90;;;;;;5032873;28;20100;-67
2022/01/05 10:05:43;;;;;;;7.13;2.30;;;2.00;99.90;;;;;;5044764;28;20048;-70
2022/01/05 10:08:09;;;;;;;6.35;1.98;;;1.90;99.90;;;;;;5042113;28;20033;-70
2022/01/05 10:10:35;;;;;;;11.52;2.42;;;1.70;99.90;;;;;;5032092;28;20033;-71
2022/01/05 10:13:01;;;;;;;7.32;2.17;;;1.60;99.90;;;;;;5048212;28;20056;-70
2022/01/05 10:15:27;;;;;;;12.63;2.75;;;1.60;99.90;;;;;;5048814;28;20136;-70
2022/01/05 10:18:13;;;;;;;5.75;2.47;;;1.60;99.90;;;;;;5044975;28;20715;-69
2022/01/05 10:21:03;;;;;;;7.55;2.40;;;1.60;99.90;;;;;;5050125;28;20064;-70
2022/01/05 10:23:36;;;;;;;5.83;2.47;;;1.70;99.90;;;;;;5052106;28;20041;-70
2022/01/05 10:26:20;;;;;;;11.38;3.10;;;1.50;99.90;;;;;;5028711;28;20329;-69
2022/01/05 10:28:47;;;;;;;16.00;3.30;;;1.40;99.90;;;;;;5032124;28;20061;-70
2022/01/05 10:31:18;;;;;;;7.20;3.25;;;1.40;99.90;;;;;;5050003;28;20481;-70
2022/01/05 10:33:44;;;;;;;9.77;2.80;;;1.50;99.90;;;;;;5047809;28;20525;-70
2022/01/05 10:36:10;;;;;;;12.60;3.85;;;1.60;99.90;;;;;;5049526;28;20057;-70
2022/01/05 10:38:36;;;;;;;12.40;3.13;;;1.80;99.90;;;;;;5039394;28;20033;-69
2022/01/05 10:41:20;;;;;;;8.10;2.55;;;1.80;99.90;;;;;;5043917;28;20032;-68
2022/01/05 10:44:12;;;;;;;12.00;2.65;;;1.70;99.90;;;;;;5038143;28;20037;-69
2022/01/05 10:46:41;;;;;;;7.05;1.73;;;1.60;99.90;;;;;;5051005;28;20059;-69
2022/01/05 10:49:07;;;;;;;8.95;2.15;;;1.60;99.90;;;;;;5033329;28;20467;-69
2022/01/05 10:51:35;;;;;;;7.10;2.08;;;1.50;99.90;;;;;;5050542;28;20021;-70
2022/01/05 10:54:15;;;;;;;8.32;2.08;;;1.50;99.90;;;;;;5039152;28;20100;-69
2022/01/05 10:56:42;;;;;;;9.80;2.22;;;1.80;99.90;;;;;;5049927;28;20151;-69
2022/01/05 10:59:08;;;;;;;5.88;1.35;;;2.30;99.90;;;;;;5038268;28;20043;-70
2022/01/05 11:01:34;;;;;;;6.18;1.77;;;2.10;99.90;;;;;;5041592;28;20040;-70
2022/01/05 11:04:15;;;;;;;4.13;1.60;;;2.00;99.90;;;;;;5046486;28;20030;-68
2022/01/05 11:07:03;;;;;;;4.88;1.55;;;2.10;99.90;;;;;;5048435;28;20041;-68
2022/01/05 11:09:30;;;;;;;5.85;1.58;;;2.20;99.90;;;;;;5024085;28;20040;-69
2022/01/05 11:11:56;;;;;;;6.80;1.67;;;2.30;99.90;;;;;;5048000;28;20477;-69
2022/01/05 11:14:32;;;;;;;12.02;1.90;;;2.20;99.90;;;;;;5050924;28;20079;-68
2022/01/05 11:17:00;;;;;;;8.95;1.73;;;2.10;99.90;;;;;;5051219;28;20517;-69
2022/01/05 11:19:29;;;;;;;6.25;1.60;;;2.30;99.90;;;;;;5050959;28;20108;-69
2022/01/05 11:22:16;;;;;;;7.25;1.65;;;2.20;99.90;;;;;;5050490;28;20055;-69
2022/01/05 11:24:51;;;;;;;7.40;1.45;;;2.10;99.90;;;;;;5049957;28;20122;-69
2022/01/05 11:27:28;;;;;;;8.80;1.80;;;2.30;99.90;;;;;;5050164;28;20044;-72
2022/01/05 11:29:55;;;;;;;6.25;1.67;;;2.40;99.90;;;;;;5047709;28;20048;-71
2022/01/05 11:32:25;;;;;;;11.32;1.90;;;2.20;99.90;;;;;;5049124;28;20032;-71
2022/01/05 11:34:52;;;;;;;8.75;1.70;;;2.00;99.90;;;;;;5048756;28;20815;-71
2022/01/05 11:37:18;;;;;;;7.65;1.60;;;1.90;99.90;;;;;;5043342;28;20493;-70
2022/01/05 11:39:51;;;;;;;6.78;1.63;;;1.80;99.90;;;;;;5049631;28;20072;-71
2022/01/05 11:42:29;;;;;;;7.80;1.58;;;1.90;99.90;;;;;;5049628;28;20481;-71
2022/01/05 11:44:55;;;;;;;6.38;1.45;;;1.90;99.90;;;;;;5049070;28;20025;-71
2022/01/05 11:47:29;;;;;;;11.25;2.10;;;1.90;99.90;;;;;;5050132;28;20043;-72
2022/01/05 11:50:17;;;;;;;6.13;1.70;;;1.70;99.90;;;;;;5046832;28;20017;-72
2022/01/05 11:52:59;;;;;;;9.25;2.20;;;1.80;99.90;;;;;;5017402;28;20037;-72
2022/01/05 11:55:27;;;;;;;12.25;2.83;;;1.90;99.90;;;;;;5037021;28;20374;-70
2022/01/05 11:58:12;;;;;;;14.60;2.90;;;2.00;99.90;;;;;;5038555;28;20033;-71
2022/01/05 12:00:37;;;;;;;7.65;2.35;;;2.30;99.90;;;;;;5040281;28;20116;-72
2022/01/05 12:03:03;;;;;;;11.30;1.90;;;2.40;99.90;;;;;;5049471;28;20131;-71
2022/01/05 12:06:05;;;;;;;12.20;2.15;;;2.50;99.90;;;;;;5044341;28;20078;-71
2022/01/05 12:08:54;;;;;;;10.55;1.70;;;2.60;99.90;;;;;;5040126;28;20033;-72
2022/01/05 12:11:41;;;;;;;15.57;1.95;;;2.90;99.90;;;;;;5045547;28;20021;-71
2022/01/05 12:14:27;;;;;;;11.20;2.28;;;3.00;99.90;;;;;;5033222;28;20127;-71
2022/01/05 12:17:02;;;;;;;10.85;2.65;;;3.10;99.90;;;;;;5038382;28;20179;-71
2022/01/05 12:19:32;;;;;;;10.80;2.55;;;3.40;99.90;;;;;;5039391;28;20433;-68
2022/01/05 12:22:00;;;;;;;10.80;2.17;;;3.30;99.90;;;;;;5045124;28;20036;-71
2022/01/05 12:24:57;;;;;;;12.32;2.20;;;3.40;99.90;;;;;;5044271;28;20500;-70
2022/01/05 12:27:32;;;;;;;7.10;2.20;;;3.20;99.90;;;;;;5049447;28;20470;-70
2022/01/05 12:30:00;;;;;;;9.38;2.85;;;2.80;99.90;;;;;;5048368;28;20039;-69
2022/01/05 12:32:34;;;;;;;13.52;2.45;;;2.70;99.90;;;;;;5036789;28;20022;-70
2022/01/05 12:35:15;;;;;;;6.57;2.13;;;2.50;99.90;;;;;;5032570;28;20026;-69
2022/01/05 12:38:06;;;;;;;13.85;2.63;;;2.60;99.90;;;;;;5029249;28;20072;-70
2022/01/05 12:40:42;;;;;;;9.50;2.72;;;2.50;99.90;;;;;;5045837;28;20052;-68
2022/01/05 12:43:08;;;;;;;10.50;2.30;;;2.50;99.90;;;;;;5024901;28;20505;-70
2022/01/05 12:45:55;;;;;;;9.73;2.13;;;2.30;99.90;;;;;;5041432;28;20120;-69
2022/01/05 12:48:33;;;;;;;8.52;2.55;;;2.20;99.90;;;;;;5048900;28;20033;-70
2022/01/05 12:51:14;;;;;;;13.85;2.45;;;2.20;99.90;;;;;;5039102;28;20083;-69
2022/01/05 12:54:06;;;;;;;8.02;2.50;;;2.10;99.90;;;;;;5037716;28;20033;-70
2022/01/05 12:56:42;;;;;;;15.90;2.47;;;2.10;99.90;;;;;;5030067;28;20033;-69
2022/01/05 12:59:11;;;;;;;13.07;2.70;;;2.10;99.90;;;;;;5030046;28;20056;-69
2022/01/05 13:01:37;;;;;;;8.50;2.40;;;2.00;99.90;;;;;;5034271;28;20034;-70